Time;durP1;ratioP1;P1;durP2;ratioP2;P2;SDS_P1;SDS_P2;PMS_P1;PMS_P2;Temp;Humidity;BMP_temperature;BMP_pressure;BME280_temperature;BME280_humidity;BME280_pressure;Samples;Min_cycle;Max_cycle;Signal;HPM_P1;HPM_P2
2021/01/15 00:01:59;;;;;;;8.88;3.17;;;;;;;0.34;66.96;98943.81;5094459;28;20048;-66
2021/01/15 00:04:26;;;;;;;6.00;3.22;;;;;;;0.35;66.83;98952.44;5094139;28;20082;-65
2021/01/15 00:06:56;;;;;;;5.03;2.95;;;;;;;0.34;66.81;98951.59;5093021;28;20052;-66
2021/01/15 00:09:23;;;;;;;3.42;2.92;;;;;;;0.32;66.81;98950.88;5094285;28;20680;-65
2021/01/15 00:11:49;;;;;;;4.88;2.70;;;;;;;0.30;66.68;98952.81;5094088;28;20059;-65
2021/01/15 00:14:17;;;;;;;3.42;2.60;;;;;;;0.26;66.76;98950.56;5093967;28;20044;-65
2021/01/15 00:16:44;;;;;;;4.63;2.95;;;;;;;0.23;66.52;98959.44;5093959;28;20059;-65
2021/01/15 00:19:11;;;;;;;4.65;2.42;;;;;;;0.21;66.49;98961.34;5094014;28;20040;-65
2021/01/15 00:21:47;;;;;;;3.45;2.67;;;;;;;0.25;65.99;98962.75;5093808;28;20052;-65
2021/01/15 00:24:16;;;;;;;3.72;2.25;;;;;;;0.19;66.41;98958.84;5093441;28;20130;-66
2021/01/15 00:26:43;;;;;;;7.35;3.00;;;;;;;0.18;66.54;98969.38;5093546;28;20048;-65
2021/01/15 00:29:11;;;;;;;6.82;3.10;;;;;;;0.13;66.75;98966.34;5093736;28;20048;-65
2021/01/15 00:31:40;;;;;;;3.33;2.60;;;;;;;0.07;66.89;98959.84;5093820;28;20040;-66
2021/01/15 00:34:09;;;;;;;5.82;2.65;;;;;;;0.07;67.10;98964.22;5093661;28;20036;-66
2021/01/15 00:36:36;;;;;;;4.15;2.95;;;;;;;-0.01;67.17;98970.00;5093813;28;20044;-64
2021/01/15 00:39:04;;;;;;;5.97;3.25;;;;;;;-0.05;67.36;98971.19;5092764;28;20444;-64
2021/01/15 00:41:34;;;;;;;7.75;3.38;;;;;;;-0.10;67.44;98974.16;5093788;28;20448;-64
2021/01/15 00:44:01;;;;;;;6.15;2.83;;;;;;;-0.13;67.64;98976.19;5092518;28;20135;-64
2021/01/15 00:46:31;;;;;;;4.82;3.22;;;;;;;-0.20;67.75;98972.44;5093529;28;20063;-64
2021/01/15 00:49:04;;;;;;;4.47;2.70;;;;;;;-0.23;67.76;98983.06;5092692;28;20472;-65
2021/01/15 00:51:33;;;;;;;5.70;3.50;;;;;;;-0.29;68.15;98974.81;5093952;28;20085;-64
2021/01/15 00:54:00;;;;;;;6.95;3.22;;;;;;;-0.30;67.93;98974.91;5095308;28;20055;-65
2021/01/15 00:56:27;;;;;;;5.80;3.65;;;;;;;-0.33;68.30;98975.97;5091467;28;20467;-65
2021/01/15 00:58:55;;;;;;;4.75;3.45;;;;;;;-0.33;68.26;98977.72;5093400;28;20131;-64
2021/01/15 01:01:30;;;;;;;4.80;3.45;;;;;;;-0.33;67.85;98988.13;5093909;28;20079;-64
2021/01/15 01:04:00;;;;;;;6.10;3.38;;;;;;;-0.40;67.94;98982.59;5093329;28;20043;-64
2021/01/15 01:06:27;;;;;;;6.72;3.20;;;;;;;-0.40;68.15;98999.94;5093603;28;20508;-65
2021/01/15 01:08:54;;;;;;;6.00;3.60;;;;;;;-0.38;68.24;98992.84;5093880;28;20036;-65
2021/01/15 01:11:22;;;;;;;7.63;3.53;;;;;;;-0.40;67.94;98992.16;5093216;28;20043;-65
2021/01/15 01:13:51;;;;;;;6.30;3.45;;;;;;;-0.41;68.08;98985.28;5092111;28;20068;-65
2021/01/15 01:16:18;;;;;;;5.22;3.67;;;;;;;-0.41;68.13;98991.34;5092798;28;20046;-65
2021/01/15 01:18:46;;;;;;;3.45;3.00;;;;;;;-0.41;67.97;98990.47;5093159;28;20076;-66
2021/01/15 01:21:14;;;;;;;5.07;3.30;;;;;;;-0.41;68.10;98995.69;5093661;28;20421;-65
2021/01/15 01:23:42;;;;;;;6.13;3.63;;;;;;;-0.41;68.06;99000.88;5093112;28;20046;-65
2021/01/15 01:26:09;;;;;;;6.18;3.13;;;;;;;-0.40;68.21;99005.16;5093114;28;20040;-65
2021/01/15 01:28:35;;;;;;;3.92;3.28;;;;;;;-0.41;67.97;99003.47;5092624;28;20060;-65
2021/01/15 01:31:03;;;;;;;5.20;3.10;;;;;;;-0.40;68.06;99010.34;5092604;28;20048;-65
2021/01/15 01:33:30;;;;;;;5.15;3.17;;;;;;;-0.42;67.67;99018.22;5093122;28;20063;-65
2021/01/15 01:35:56;;;;;;;4.13;3.50;;;;;;;-0.45;67.77;99018.50;5092783;28;20055;-65
2021/01/15 01:38:23;;;;;;;6.78;3.33;;;;;;;-0.48;67.94;99026.50;5091644;28;20091;-65
2021/01/15 01:40:50;;;;;;;7.20;3.40;;;;;;;-0.50;67.78;99029.19;5092958;28;20044;-65
2021/01/15 01:43:17;;;;;;;5.45;3.33;;;;;;;-0.50;67.72;99030.97;5093445;28;20517;-65
2021/01/15 01:45:44;;;;;;;6.15;3.38;;;;;;;-0.56;67.91;99031.47;5091140;28;20067;-65
2021/01/15 01:48:11;;;;;;;5.05;3.35;;;;;;;-0.51;67.96;99030.16;5093268;28;20036;-65
2021/01/15 01:50:41;;;;;;;5.38;3.38;;;;;;;-0.46;68.02;99031.56;5091575;28;20056;-65
2021/01/15 01:53:11;;;;;;;4.68;3.08;;;;;;;-0.50;67.58;99037.00;5093191;28;20140;-65
2021/01/15 01:55:38;;;;;;;5.65;3.17;;;;;;;-0.53;67.85;99026.88;5092760;28;20051;-65
2021/01/15 01:58:06;;;;;;;5.65;3.42;;;;;;;-0.53;67.52;99037.25;5092807;28;20048;-65
2021/01/15 02:00:36;;;;;;;5.53;3.58;;;;;;;-0.54;67.69;99034.75;5091527;28;20051;-65
2021/01/15 02:03:03;;;;;;;5.90;3.60;;;;;;;-0.55;67.86;99040.91;5092806;28;20502;-65
2021/01/15 02:05:30;;;;;;;5.55;3.67;;;;;;;-0.57;67.63;99041.03;5093090;28;20044;-65
2021/01/15 02:07:57;;;;;;;8.40;3.42;;;;;;;-0.57;67.63;99046.22;5092823;28;20529;-65
2021/01/15 02:10:31;;;;;;;5.60;3.63;;;;;;;-0.62;67.63;99042.28;5093269;28;20044;-65
2021/01/15 02:13:04;;;;;;;3.72;3.17;;;;;;;-0.63;67.61;99044.06;5092992;28;20052;-65
2021/01/15 02:15:38;;;;;;;4.65;3.35;;;;;;;-0.64;67.80;99044.19;5091516;28;20047;-65
2021/01/15 02:18:09;;;;;;;3.75;3.40;;;;;;;-0.66;67.70;99040.88;5092218;28;20409;-65
2021/01/15 02:21:25;;;;;;;6.75;4.00;;;;;;;-0.67;67.72;99047.84;5091853;28;20521;-65
2021/01/15 02:24:02;;;;;;;3.22;2.92;;;;;;;-0.69;67.52;99048.91;5093661;28;20044;-65
2021/01/15 02:26:58;;;;;;;5.85;3.75;;;;;;;-0.72;67.64;99044.78;5092804;28;20059;-65
2021/01/15 02:29:27;;;;;;;4.82;3.70;;;;;;;-0.70;67.40;99052.44;5092725;28;20462;-65
2021/01/15 02:32:25;;;;;;;4.38;3.47;;;;;;;-0.69;67.63;99054.09;5093004;28;20052;-64
2021/01/15 02:35:02;;;;;;;7.80;3.85;;;;;;;-0.70;67.75;99048.06;5092999;28;20047;-65
2021/01/15 02:37:37;;;;;;;6.30;4.07;;;;;;;-0.71;67.37;99043.81;5094540;28;20052;-65
2021/01/15 02:40:07;;;;;;;7.28;3.42;;;;;;;-0.70;67.44;99049.84;5095276;28;20055;-65
2021/01/15 02:42:37;;;;;;;4.55;3.33;;;;;;;-0.73;67.03;99045.72;5096752;28;20044;-65
2021/01/15 02:45:08;;;;;;;6.07;3.60;;;;;;;-0.77;67.25;99055.50;5096300;28;20498;-65
2021/01/15 02:47:48;;;;;;;6.57;3.47;;;;;;;-0.75;67.21;99063.16;5095397;28;20044;-65
2021/01/15 02:50:16;;;;;;;8.55;3.95;;;;;;;-0.79;67.15;99059.97;5095360;28;20409;-65
2021/01/15 02:52:43;;;;;;;5.57;3.75;;;;;;;-0.78;67.08;99063.38;5096621;28;20042;-65
2021/01/15 02:55:11;;;;;;;7.95;3.70;;;;;;;-0.76;66.97;99066.72;5095537;28;20040;-65
2021/01/15 02:57:38;;;;;;;5.80;4.10;;;;;;;-0.79;66.76;99069.53;5095635;28;20040;-65
2021/01/15 03:00:07;;;;;;;5.22;3.75;;;;;;;-0.84;67.06;99074.25;5095278;28;20126;-65
2021/01/15 03:02:45;;;;;;;6.43;4.40;;;;;;;-0.82;66.98;99080.97;5095527;28;20051;-65
2021/01/15 03:05:19;;;;;;;7.10;4.25;;;;;;;-0.81;67.24;99087.81;5095157;28;20101;-65
2021/01/15 03:07:46;;;;;;;5.97;4.57;;;;;;;-0.80;66.89;99089.47;5096860;28;20060;-66
2021/01/15 03:10:14;;;;;;;6.80;3.97;;;;;;;-0.83;66.85;99096.66;5096724;28;20478;-66
2021/01/15 03:12:43;;;;;;;6.70;3.95;;;;;;;-0.83;66.94;99102.66;5096448;28;20513;-65
2021/01/15 03:15:12;;;;;;;5.10;3.72;;;;;;;-0.82;67.12;99096.56;5096714;28;20040;-65
2021/01/15 03:17:47;;;;;;;6.07;4.40;;;;;;;-0.83;66.74;99099.25;5096499;28;20051;-65
2021/01/15 03:20:15;;;;;;;8.07;4.45;;;;;;;-0.88;66.71;99101.34;5096836;28;20555;-65
2021/01/15 03:22:45;;;;;;;6.78;4.43;;;;;;;-0.85;66.84;99101.16;5097125;28;20452;-65
2021/01/15 03:25:14;;;;;;;7.07;4.90;;;;;;;-0.85;66.96;99108.94;5095026;28;20048;-66
2021/01/15 03:27:44;;;;;;;7.65;4.65;;;;;;;-0.84;66.87;99113.16;5096357;28;20525;-66
2021/01/15 03:30:13;;;;;;;8.18;4.55;;;;;;;-0.82;66.88;99119.91;5096183;28;20040;-65
2021/01/15 03:32:39;;;;;;;6.93;4.65;;;;;;;-0.83;66.45;99118.25;5096211;28;20032;-65
2021/01/15 03:35:08;;;;;;;7.50;4.55;;;;;;;-0.83;66.69;99120.84;5095809;28;20044;-65
2021/01/15 03:37:35;;;;;;;8.23;4.90;;;;;;;-0.82;66.69;99132.91;5094563;28;20047;-65
2021/01/15 03:40:04;;;;;;;6.40;4.80;;;;;;;-0.79;66.54;99130.06;5094378;28;20039;-65
2021/01/15 03:42:30;;;;;;;8.30;4.43;;;;;;;-0.78;66.73;99136.06;5094658;28;20398;-65
2021/01/15 03:44:57;;;;;;;6.25;4.35;;;;;;;-0.78;66.86;99139.53;5094203;28;20114;-65
2021/01/15 03:47:24;;;;;;;9.43;5.32;;;;;;;-0.78;66.58;99149.03;5093895;28;20559;-65
2021/01/15 03:49:51;;;;;;;5.68;4.47;;;;;;;-0.82;66.49;99156.25;5094224;28;20429;-65
2021/01/15 03:52:18;;;;;;;6.72;4.60;;;;;;;-0.80;66.82;99153.53;5094488;28;20054;-65
2021/01/15 03:54:45;;;;;;;7.55;4.97;;;;;;;-0.78;66.81;99149.91;5094094;28;20048;-65
2021/01/15 03:57:12;;;;;;;5.75;3.83;;;;;;;-0.79;66.54;99150.00;5095833;28;20134;-65
2021/01/15 03:59:39;;;;;;;7.25;4.25;;;;;;;-0.81;66.56;99157.09;5093959;28;20040;-65
2021/01/15 04:02:05;;;;;;;6.03;4.20;;;;;;;-0.82;66.75;99153.66;5093684;28;20052;-65
2021/01/15 04:04:32;;;;;;;5.95;4.22;;;;;;;-0.79;67.00;99147.41;5093764;28;20051;-65
2021/01/15 04:06:59;;;;;;;5.47;4.20;;;;;;;-0.79;66.88;99153.41;5093974;28;20054;-65
2021/01/15 04:09:27;;;;;;;5.22;4.18;;;;;;;-0.75;66.80;99159.22;5094091;28;20161;-66
2021/01/15 04:11:54;;;;;;;6.85;3.63;;;;;;;-0.79;66.91;99165.56;5093925;28;20490;-65
2021/01/15 04:14:20;;;;;;;5.75;4.07;;;;;;;-0.78;66.42;99154.25;5093686;28;20089;-65
2021/01/15 04:16:50;;;;;;;6.57;4.10;;;;;;;-0.84;66.41;99155.53;5093684;28;20047;-65
2021/01/15 04:19:17;;;;;;;7.35;3.80;;;;;;;-0.88;66.78;99167.06;5093904;28;20047;-65
2021/01/15 04:21:44;;;;;;;7.05;4.20;;;;;;;-0.89;66.64;99160.22;5093546;28;20051;-65
2021/01/15 04:24:11;;;;;;;4.82;4.22;;;;;;;-0.88;66.51;99161.88;5094594;28;20494;-66
2021/01/15 04:26:38;;;;;;;7.60;4.50;;;;;;;-0.89;66.62;99168.03;5093784;28;20062;-65
2021/01/15 04:29:05;;;;;;;8.38;4.75;;;;;;;-0.89;66.78;99168.03;5093744;28;20044;-65
2021/01/15 04:31:32;;;;;;;6.60;4.60;;;;;;;-0.90;66.56;99176.75;5093876;28;20044;-65
2021/01/15 04:33:59;;;;;;;5.53;3.60;;;;;;;-0.94;66.41;99175.31;5093665;28;20047;-65
2021/01/15 04:36:26;;;;;;;6.20;4.00;;;;;;;-0.95;66.65;99178.81;5093546;28;20048;-65
2021/01/15 04:38:53;;;;;;;7.03;4.22;;;;;;;-0.93;66.69;99178.75;5093461;28;20052;-65
2021/01/15 04:41:22;;;;;;;4.95;3.90;;;;;;;-0.93;66.49;99186.53;5092472;28;20048;-65
2021/01/15 04:43:54;;;;;;;4.68;3.63;;;;;;;-1.00;66.39;99184.34;5093529;28;20070;-65
2021/01/15 04:46:22;;;;;;;5.55;3.28;;;;;;;-1.07;66.31;99193.50;5092195;28;20044;-65
2021/01/15 04:48:51;;;;;;;5.25;3.35;;;;;;;-1.09;66.58;99191.97;5093557;28;20115;-65
2021/01/15 04:51:22;;;;;;;7.13;3.75;;;;;;;-1.11;66.70;99186.88;5093389;28;20040;-65
2021/01/15 04:53:55;;;;;;;4.70;3.20;;;;;;;-1.14;66.78;99189.72;5093277;28;20532;-65
2021/01/15 04:56:29;;;;;;;6.93;3.55;;;;;;;-1.18;66.99;99196.06;5092846;28;20437;-65
2021/01/15 04:59:01;;;;;;;5.68;3.65;;;;;;;-1.19;66.75;99198.75;5094297;28;20040;-65
2021/01/15 05:01:35;;;;;;;3.85;2.80;;;;;;;-1.25;66.93;99200.84;5095133;28;20047;-65
2021/01/15 05:04:06;;;;;;;9.00;5.03;;;;;;;-1.25;67.21;99208.63;5094018;28;20052;-65
2021/01/15 05:06:45;;;;;;;7.55;4.30;;;;;;;-1.16;67.63;99212.31;5092732;28;20138;-65
2021/01/15 05:09:21;;;;;;;5.03;3.10;;;;;;;-1.18;67.16;99210.81;5093015;28;20146;-65
2021/01/15 05:11:49;;;;;;;4.43;3.25;;;;;;;-1.24;67.20;99217.22;5093080;28;20082;-65
2021/01/15 05:14:18;;;;;;;4.97;3.20;;;;;;;-1.28;67.38;99216.59;5092613;28;20052;-65
2021/01/15 05:16:46;;;;;;;5.95;3.47;;;;;;;-1.23;67.83;99223.25;5092793;28;20054;-65
2021/01/15 05:19:15;;;;;;;5.63;3.40;;;;;;;-1.20;67.38;99215.25;5092525;28;20044;-65
2021/01/15 05:21:43;;;;;;;4.30;3.17;;;;;;;-1.19;67.31;99225.50;5092623;28;20040;-65
2021/01/15 05:24:10;;;;;;;6.53;3.92;;;;;;;-1.22;67.51;99223.16;5092339;28;20044;-65
2021/01/15 05:26:39;;;;;;;3.13;2.88;;;;;;;-1.21;67.58;99223.97;5092585;28;20406;-65
2021/01/15 05:29:07;;;;;;;3.78;3.13;;;;;;;-1.18;67.55;99229.78;5092487;28;20044;-65
2021/01/15 05:31:51;;;;;;;6.20;3.50;;;;;;;-1.18;67.42;99228.97;5091312;28;20072;-65
2021/01/15 05:34:19;;;;;;;5.60;3.95;;;;;;;-1.17;67.55;99241.81;5092212;28;20040;-65
2021/01/15 05:36:47;;;;;;;5.30;3.67;;;;;;;-1.19;67.21;99248.03;5092445;28;20087;-65
2021/01/15 05:39:17;;;;;;;5.65;3.70;;;;;;;-1.25;67.37;99257.09;5091267;28;20055;-65
2021/01/15 05:41:45;;;;;;;10.50;3.75;;;;;;;-1.27;67.17;99254.59;5092289;28;20044;-65
2021/01/15 05:44:25;;;;;;;7.30;3.80;;;;;;;-1.31;67.43;99263.53;5092093;28;20413;-65
2021/01/15 05:46:53;;;;;;;8.05;3.75;;;;;;;-1.28;67.48;99273.69;5092354;28;20040;-65
2021/01/15 05:49:20;;;;;;;6.03;3.92;;;;;;;-1.32;67.26;99276.59;5092233;28;20561;-65
2021/01/15 05:51:47;;;;;;;7.43;4.50;;;;;;;-1.31;67.50;99273.91;5090642;28;20044;-65
2021/01/15 05:54:29;;;;;;;6.65;4.22;;;;;;;-1.27;67.53;99275.34;5091757;28;20040;-65
2021/01/15 05:56:56;;;;;;;5.43;3.83;;;;;;;-1.27;67.69;99279.69;5091993;28;20059;-65
2021/01/15 05:59:23;;;;;;;6.53;4.05;;;;;;;-1.25;67.69;99283.84;5091889;28;20044;-65
2021/01/15 06:01:51;;;;;;;6.28;3.97;;;;;;;-1.29;67.40;99285.00;5090664;28;20059;-65
2021/01/15 06:04:20;;;;;;;11.38;4.95;;;;;;;-1.31;67.57;99291.22;5091523;28;20040;-65
2021/01/15 06:06:48;;;;;;;7.43;4.55;;;;;;;-1.37;67.55;99297.66;5092075;28;20044;-65
2021/01/15 06:09:21;;;;;;;5.35;4.07;;;;;;;-1.36;67.65;99298.50;5091950;28;20036;-65
2021/01/15 06:11:50;;;;;;;8.70;4.07;;;;;;;-1.42;67.61;99299.75;5095892;28;20044;-65
2021/01/15 06:14:19;;;;;;;8.70;4.40;;;;;;;-1.45;67.76;99299.13;5095939;28;20048;-65
2021/01/15 06:16:45;;;;;;;7.45;4.38;;;;;;;-1.40;68.03;99297.03;5094865;28;20064;-65
2021/01/15 06:19:12;;;;;;;7.47;4.35;;;;;;;-1.37;67.96;99304.63;5095860;28;20048;-65
2021/01/15 06:21:51;;;;;;;8.32;4.45;;;;;;;-1.42;67.93;99304.09;5095923;28;20051;-65
2021/01/15 06:24:22;;;;;;;6.93;3.85;;;;;;;-1.39;67.97;99311.66;5095556;28;20063;-65
2021/01/15 06:27:04;;;;;;;6.70;4.10;;;;;;;-1.40;68.00;99318.63;5094477;28;20055;-65
2021/01/15 06:29:44;;;;;;;6.00;3.80;;;;;;;-1.43;67.94;99317.97;5095757;28;20052;-65
2021/01/15 06:32:11;;;;;;;7.05;4.10;;;;;;;-1.45;67.95;99323.28;5095747;28;20481;-65
2021/01/15 06:34:48;;;;;;;6.32;4.05;;;;;;;-1.46;68.14;99331.19;5095419;28;20066;-65
2021/01/15 06:37:19;;;;;;;8.40;4.80;;;;;;;-1.48;68.06;99323.50;5095620;28;20036;-65
2021/01/15 06:40:04;;;;;;;7.03;4.70;;;;;;;-1.51;68.27;99324.53;5095618;28;20051;-65
2021/01/15 06:42:32;;;;;;;8.15;4.50;;;;;;;-1.55;68.52;99330.88;5095751;28;20042;-65
2021/01/15 06:44:58;;;;;;;9.05;4.20;;;;;;;-1.57;68.43;99332.72;5095407;28;20047;-65
2021/01/15 06:47:36;;;;;;;7.90;4.50;;;;;;;-1.56;68.58;99333.53;5095398;28;20059;-65
2021/01/15 06:50:04;;;;;;;8.25;4.43;;;;;;;-1.55;68.57;99340.41;5095342;28;20047;-65
2021/01/15 06:52:36;;;;;;;8.32;4.60;;;;;;;-1.59;68.51;99347.56;5095343;28;20044;-65
2021/01/15 06:55:08;;;;;;;8.82;4.68;;;;;;;-1.61;68.72;99353.78;5095115;28;20040;-65
2021/01/15 06:57:36;;;;;;;5.65;4.30;;;;;;;-1.60;68.93;99356.25;5095262;28;20040;-65
2021/01/15 07:00:05;;;;;;;9.05;4.53;;;;;;;-1.54;68.74;99368.00;5095255;28;20032;-65
2021/01/15 07:02:54;;;;;;;7.35;4.78;;;;;;;-1.57;68.85;99370.78;5095344;28;20126;-65
2021/01/15 07:05:26;;;;;;;7.28;4.75;;;;;;;-1.59;69.05;99372.66;5094965;28;20501;-65
2021/01/15 07:07:55;;;;;;;6.35;4.45;;;;;;;-1.58;69.08;99377.72;5095264;28;20120;-65
2021/01/15 07:10:22;;;;;;;9.43;4.95;;;;;;;-1.59;69.02;99370.06;5095280;28;20539;-65
2021/01/15 07:12:55;;;;;;;7.28;5.15;;;;;;;-1.63;69.04;99384.16;5095059;28;20047;-65
2021/01/15 07:15:27;;;;;;;9.52;5.25;;;;;;;-1.64;69.15;99383.31;5094808;28;20046;-65
2021/01/15 07:17:59;;;;;;;7.20;4.70;;;;;;;-1.56;69.18;99383.63;5095376;28;20051;-66
2021/01/15 07:20:33;;;;;;;8.82;5.07;;;;;;;-1.45;68.98;99388.13;5095333;28;20406;-66
2021/01/15 07:23:01;;;;;;;7.18;4.55;;;;;;;-1.43;68.75;99395.78;5094351;28;20504;-66
2021/01/15 07:25:27;;;;;;;9.27;4.75;;;;;;;-1.45;68.97;99393.31;5094793;28;20075;-65
2021/01/15 07:27:56;;;;;;;7.85;4.78;;;;;;;-1.40;68.82;99404.19;5095078;28;20383;-66
2021/01/15 07:30:25;;;;;;;10.60;5.25;;;;;;;-1.35;68.88;99402.16;5095992;28;20092;-66
2021/01/15 07:32:53;;;;;;;10.30;5.22;;;;;;;-1.31;68.80;99400.16;5095704;28;20072;-65
2021/01/15 07:35:22;;;;;;;12.35;5.63;;;;;;;-1.32;68.65;99403.69;5094342;28;20115;-66
2021/01/15 07:37:49;;;;;;;9.43;5.20;;;;;;;-1.30;68.82;99407.03;5094414;28;20044;-65
2021/01/15 07:40:18;;;;;;;6.80;5.10;;;;;;;-1.27;68.84;99420.63;5094463;28;20111;-65
2021/01/15 07:42:50;;;;;;;8.80;5.53;;;;;;;-1.23;68.57;99420.41;5094564;28;20042;-66
2021/01/15 07:45:52;;;;;;;8.80;5.32;;;;;;;-1.23;68.35;99430.78;5094373;28;20054;-65
2021/01/15 07:48:20;;;;;;;11.25;6.07;;;;;;;-1.23;68.83;99433.38;5094739;28;20110;-66
2021/01/15 07:50:50;;;;;;;10.20;4.90;;;;;;;-1.21;68.55;99436.72;5095123;28;20096;-66
2021/01/15 07:53:28;;;;;;;8.52;5.22;;;;;;;-1.28;68.54;99436.28;5096151;28;20044;-66
2021/01/15 07:55:57;;;;;;;8.23;5.13;;;;;;;-1.23;68.40;99448.94;5093564;28;20177;-66
2021/01/15 07:58:26;;;;;;;9.00;5.45;;;;;;;-1.24;68.53;99442.91;5094396;28;20428;-66
2021/01/15 08:00:53;;;;;;;9.45;5.55;;;;;;;-1.23;68.51;99454.13;5094231;28;20048;-66
2021/01/15 08:03:21;;;;;;;9.40;5.57;;;;;;;-1.23;68.57;99461.91;5094100;28;20448;-66
2021/01/15 08:05:48;;;;;;;10.48;5.25;;;;;;;-1.18;68.58;99463.28;5093576;28;20048;-66
2021/01/15 08:08:17;;;;;;;8.70;5.47;;;;;;;-1.17;68.61;99462.34;5094119;28;20051;-66
2021/01/15 08:10:46;;;;;;;10.85;5.45;;;;;;;-1.14;68.55;99472.53;5094354;28;20509;-66
2021/01/15 08:13:22;;;;;;;9.40;5.68;;;;;;;-1.12;68.45;99477.59;5096217;28;20078;-65
2021/01/15 08:15:50;;;;;;;8.98;5.75;;;;;;;-1.10;68.58;99481.75;5097936;28;20044;-65
2021/01/15 08:18:17;;;;;;;10.88;5.93;;;;;;;-1.05;68.52;99484.06;5096997;28;20062;-66
2021/01/15 08:20:49;;;;;;;8.32;5.68;;;;;;;-1.02;68.51;99473.47;5095836;28;20048;-66
2021/01/15 08:23:23;;;;;;;8.43;5.80;;;;;;;-1.02;68.40;99489.03;5093253;28;20131;-66
2021/01/15 08:25:52;;;;;;;8.63;5.53;;;;;;;-0.96;68.62;99487.78;5092372;28;20048;-66
2021/01/15 08:28:20;;;;;;;8.90;6.35;;;;;;;-0.93;68.60;99493.63;5093932;28;20052;-66
2021/01/15 08:31:03;;;;;;;9.90;5.60;;;;;;;-0.88;68.37;99493.31;5093668;28;20054;-66
2021/01/15 08:33:30;;;;;;;9.57;6.13;;;;;;;-0.89;68.67;99500.25;5093159;28;20072;-66
2021/01/15 08:35:59;;;;;;;9.38;6.38;;;;;;;-0.87;68.55;99507.94;5093242;28;20044;-66
2021/01/15 08:38:30;;;;;;;11.57;6.28;;;;;;;-0.80;68.23;99504.81;5093560;28;20051;-65
2021/01/15 08:41:14;;;;;;;10.77;6.57;;;;;;;-0.75;68.22;99515.72;5093599;28;20048;-66
2021/01/15 08:43:41;;;;;;;;;;;;;;;-0.76;68.26;99519.25;5094151;28;20048;-66
2021/01/15 08:46:14;;;;;;;9.73;6.07;;;;;;;-0.63;68.41;99521.84;5093266;28;19920;-65
2021/01/15 08:48:41;;;;;;;7.97;6.15;;;;;;;-0.58;68.30;99524.13;5094142;28;20036;-66
2021/01/15 08:51:09;;;;;;;11.75;6.72;;;;;;;-0.50;68.21;99527.03;5093781;28;20037;-66
2021/01/15 08:54:03;;;;;;;8.52;6.20;;;;;;;-0.42;68.25;99529.94;5094135;28;20048;-66
2021/01/15 08:56:33;;;;;;;8.65;6.50;;;;;;;-0.29;68.08;99535.13;5095759;28;20043;-66
2021/01/15 08:59:01;;;;;;;11.38;6.47;;;;;;;-0.23;68.07;99533.91;5095342;28;20048;-66
2021/01/15 09:01:29;;;;;;;10.77;6.70;;;;;;;-0.18;67.87;99537.81;5094171;28;20036;-66
2021/01/15 09:04:00;;;;;;;9.82;6.75;;;;;;;-0.08;67.72;99541.47;5092844;28;20047;-66
2021/01/15 09:06:28;;;;;;;9.57;6.55;;;;;;;-0.01;67.41;99549.66;5092483;28;20052;-66
2021/01/15 09:09:00;;;;;;;9.25;6.15;;;;;;;0.00;67.06;99548.72;5092887;28;20043;-66
2021/01/15 09:11:31;;;;;;;9.88;6.45;;;;;;;0.05;66.87;99564.00;5092973;28;20052;-66
2021/01/15 09:13:59;;;;;;;10.52;6.85;;;;;;;0.03;66.76;99552.88;5092572;28;20055;-66
2021/01/15 09:16:28;;;;;;;11.30;6.30;;;;;;;0.08;66.68;99551.63;5092301;28;20036;-66
2021/01/15 09:18:57;;;;;;;15.82;7.20;;;;;;;0.13;66.26;99556.50;5091317;28;20093;-66
2021/01/15 09:21:23;;;;;;;14.32;7.70;;;;;;;0.11;66.14;99566.97;5092636;28;20405;-66
2021/01/15 09:23:50;;;;;;;10.98;7.70;;;;;;;0.15;65.91;99570.19;5092803;28;20044;-66
2021/01/15 09:26:20;;;;;;;10.68;7.18;;;;;;;0.24;65.84;99577.34;5092199;28;20563;-66
2021/01/15 09:28:47;;;;;;;12.30;7.13;;;;;;;0.28;65.74;99576.19;5092616;28;20043;-66
2021/01/15 09:31:13;;;;;;;10.23;7.00;;;;;;;0.37;65.90;99572.13;5091223;28;20112;-66
2021/01/15 09:33:51;;;;;;;11.30;7.18;;;;;;;0.49;65.57;99579.06;5091071;28;20044;-66
2021/01/15 09:36:23;;;;;;;8.50;5.82;;;;;;;0.56;64.66;99576.84;5091984;28;20079;-66
2021/01/15 09:38:50;;;;;;;12.80;7.55;;;;;;;0.53;64.49;99584.84;5090996;28;20055;-66
2021/01/15 09:41:17;;;;;;;7.65;5.93;;;;;;;0.57;64.93;99584.56;5092263;28;20521;-66
2021/01/15 09:43:44;;;;;;;11.85;6.63;;;;;;;0.66;64.43;99590.88;5091114;28;20044;-66
2021/01/15 09:46:21;;;;;;;13.70;7.32;;;;;;;0.72;63.72;99590.41;5091378;28;20055;-66
2021/01/15 09:48:48;;;;;;;11.38;7.85;;;;;;;0.72;64.17;99596.44;5090998;28;20062;-66
2021/01/15 09:51:16;;;;;;;12.50;8.00;;;;;;;0.82;63.96;99594.03;5092204;28;20044;-66
2021/01/15 09:53:42;;;;;;;10.25;7.05;;;;;;;0.89;63.06;99595.22;5092238;28;20051;-66
2021/01/15 09:56:09;;;;;;;10.85;7.22;;;;;;;0.93;63.16;99603.63;5091789;28;20059;-66
2021/01/15 09:58:35;;;;;;;8.05;5.50;;;;;;;0.99;62.50;99595.41;5092307;28;20040;-66
2021/01/15 10:01:02;;;;;;;9.45;6.45;;;;;;;0.99;62.42;99598.00;5091884;28;20036;-66
2021/01/15 10:03:29;;;;;;;8.95;5.65;;;;;;;1.05;62.14;99607.13;5091950;28;20062;-66
2021/01/15 10:05:55;;;;;;;7.13;5.47;;;;;;;1.09;61.97;99608.56;5090279;28;20044;-66
2021/01/15 10:08:24;;;;;;;9.68;6.00;;;;;;;1.18;61.85;99605.28;5092086;28;20452;-66
2021/01/15 10:10:51;;;;;;;10.13;6.03;;;;;;;1.19;61.17;99610.38;5090599;28;20047;-66
2021/01/15 10:13:17;;;;;;;8.52;6.15;;;;;;;1.20;61.57;99606.84;5092155;28;20051;-66
2021/01/15 10:15:44;;;;;;;9.75;5.90;;;;;;;1.26;61.09;99612.53;5091444;28;20044;-66
2021/01/15 10:18:11;;;;;;;10.00;5.88;;;;;;;1.29;60.62;99615.72;5091876;28;20135;-66
2021/01/15 10:20:43;;;;;;;10.75;6.38;;;;;;;1.22;60.90;99620.59;5091823;28;20485;-66
2021/01/15 10:23:10;;;;;;;8.45;6.20;;;;;;;1.26;60.40;99618.56;5091982;28;20043;-66
2021/01/15 10:25:40;;;;;;;8.85;6.35;;;;;;;1.27;60.92;99630.66;5091705;28;20382;-66
2021/01/15 10:28:07;;;;;;;9.48;5.93;;;;;;;1.34;60.66;99631.03;5092216;28;20054;-65
2021/01/15 10:30:33;;;;;;;8.23;6.30;;;;;;;1.30;60.17;99632.19;5091997;28;20552;-65
2021/01/15 10:33:00;;;;;;;10.02;6.25;;;;;;;1.39;60.41;99632.38;5091871;28;20047;-65
2021/01/15 10:35:27;;;;;;;8.02;5.30;;;;;;;1.44;58.99;99640.66;5091611;28;20123;-65
2021/01/15 10:37:54;;;;;;;9.82;6.35;;;;;;;1.41;58.60;99633.06;5091698;28;20413;-64
2021/01/15 10:40:21;;;;;;;8.48;5.93;;;;;;;1.37;58.81;99649.88;5091808;28;20040;-65
2021/01/15 10:42:48;;;;;;;9.65;5.80;;;;;;;1.32;59.06;99636.34;5091734;28;20444;-64
2021/01/15 10:45:15;;;;;;;10.45;5.95;;;;;;;1.33;58.81;99645.81;5090262;28;20048;-65
2021/01/15 10:47:42;;;;;;;8.50;5.90;;;;;;;1.33;58.37;99645.81;5090184;28;20048;-65
2021/01/15 10:50:15;;;;;;;10.23;5.75;;;;;;;1.36;58.22;99647.38;5091788;28;20045;-65
2021/01/15 10:52:42;;;;;;;8.68;5.60;;;;;;;1.33;58.37;99638.00;5090504;28;20046;-65
2021/01/15 10:55:10;;;;;;;7.68;5.70;;;;;;;1.36;58.55;99639.56;5089992;28;20092;-65
2021/01/15 10:57:37;;;;;;;8.65;5.60;;;;;;;1.51;58.28;99642.78;5093068;28;20493;-65
2021/01/15 11:00:06;;;;;;;10.05;6.35;;;;;;;1.54;57.69;99639.97;5093998;28;20081;-65
2021/01/15 11:02:33;;;;;;;9.98;6.40;;;;;;;1.58;57.81;99644.84;5095219;28;20046;-65
2021/01/15 11:04:59;;;;;;;7.45;5.50;;;;;;;1.64;57.38;99647.00;5095160;28;20040;-65
2021/01/15 11:07:26;;;;;;;8.15;5.15;;;;;;;1.65;56.78;99643.44;5095119;28;20040;-65
2021/01/15 11:09:53;;;;;;;7.57;5.70;;;;;;;1.70;56.81;99643.91;5095081;28;20429;-65
2021/01/15 11:12:20;;;;;;;8.95;6.32;;;;;;;1.66;57.44;99646.88;5093650;28;20052;-65
2021/01/15 11:14:46;;;;;;;8.00;5.47;;;;;;;1.76;56.92;99645.25;5094601;28;20044;-64
2021/01/15 11:17:16;;;;;;;8.57;5.53;;;;;;;1.79;56.98;99645.00;5095015;28;20043;-64
2021/01/15 11:19:43;;;;;;;8.73;5.95;;;;;;;1.80;56.57;99643.25;5095092;28;20044;-65
2021/01/15 11:22:09;;;;;;;8.77;5.45;;;;;;;1.83;56.15;99650.81;5095011;28;20058;-65
2021/01/15 11:24:36;;;;;;;11.23;5.63;;;;;;;1.88;55.45;99653.91;5093713;28;20417;-65
2021/01/15 11:27:03;;;;;;;7.93;5.90;;;;;;;1.85;56.31;99654.16;5095373;28;20075;-65
2021/01/15 11:29:30;;;;;;;7.80;5.95;;;;;;;1.85;55.99;99643.72;5093643;28;20075;-65
2021/01/15 11:31:57;;;;;;;7.63;5.43;;;;;;;1.90;56.08;99659.84;5093397;28;20036;-65
2021/01/15 11:34:25;;;;;;;11.10;6.28;;;;;;;1.92;55.61;99644.91;5094468;28;20070;-65
2021/01/15 11:36:51;;;;;;;7.60;5.35;;;;;;;1.88;55.63;99653.91;5094469;28;20051;-65
2021/01/15 11:39:18;;;;;;;7.20;4.63;;;;;;;1.97;54.81;99642.78;5094499;28;20043;-65
2021/01/15 11:41:51;;;;;;;7.03;4.85;;;;;;;1.96;54.63;99646.34;5094363;28;20047;-65
2021/01/15 11:44:18;;;;;;;6.75;5.38;;;;;;;1.95;54.40;99647.25;5094181;28;20036;-65
2021/01/15 11:46:45;;;;;;;7.63;5.35;;;;;;;2.04;54.67;99653.56;5092933;28;20048;-65